Lansing, North Carolina
Current Conditions -  °F | °C
As of 1:35 PM on Thursday 23 Oct 2014 (Local Time) from KGEV Reporting Station
Clear Clear  
Wind Chill: 53°   Ceiling: Unl
Heat Index: 53°   Visibility: 10mi
Dew Point: 33°   Wind: 12mph
Humidity: 46%   Direction: 310°NW
Pressure: 30.08"   Gusts: 17mph
Location:  36.5°N, 81.51°W
Report Text: KGEV 231735Z AUTO 31010G15KT 10SM CLR 12/00 A3008 RMK AO2 T01150003
Loading
Personal Weather Stations






























Interactive Weather Map
Tropical Storm Tracking
New forecast layout! Learn more

10-Day Weather Forecast

Advertisements
Track Severe Weather on mobile